Time;durP1;ratioP1;P1;durP2;ratioP2;P2;SDS_P1;SDS_P2;PMS_P1;PMS_P2;Temp;Humidity;BMP_temperature;BMP_pressure;BME280_temperature;BME280_humidity;BME280_pressure;Samples;Min_cycle;Max_cycle;Signal;HPM_P1;HPM_P2
2022/08/04 00:00:06;;;;;;;5.17;2.90;;;29.80;41.10;;;;;;5025227;28;20444;-47
2022/08/04 00:02:40;;;;;;;2.80;2.60;;;29.80;41.20;;;;;;5024738;28;20497;-46
2022/08/04 00:05:15;;;;;;;2.80;2.60;;;29.60;41.60;;;;;;5027779;28;20524;-49
2022/08/04 00:07:53;;;;;;;4.93;2.50;;;29.60;41.70;;;;;;5025937;28;20536;-48
2022/08/04 00:10:21;;;;;;;2.87;2.67;;;29.50;41.90;;;;;;5027184;28;20479;-46
2022/08/04 00:12:49;;;;;;;3.30;3.00;;;29.30;42.30;;;;;;5022018;28;20493;-49
2022/08/04 00:15:17;;;;;;;18.87;3.30;;;29.20;42.80;;;;;;5027113;28;20444;-48
2022/08/04 00:18:08;;;;;;;3.20;2.60;;;29.00;43.20;;;;;;5022354;28;21716;-45
2022/08/04 00:20:37;;;;;;;4.13;2.63;;;28.90;43.10;;;;;;5021661;28;20447;-45
2022/08/04 00:23:04;;;;;;;2.80;2.60;;;28.70;43.60;;;;;;5018717;28;20444;-45
2022/08/04 00:25:30;;;;;;;4.60;2.60;;;28.60;43.70;;;;;;5029190;28;20456;-47
2022/08/04 00:27:56;;;;;;;5.13;2.70;;;28.80;43.60;;;;;;5029548;28;20471;-44
2022/08/04 00:30:23;;;;;;;3.10;2.90;;;28.90;43.20;;;;;;5027662;28;20930;-49
2022/08/04 00:32:48;;;;;;;4.70;3.00;;;29.00;43.00;;;;;;5025238;28;20197;-45
2022/08/04 00:35:15;;;;;;;5.63;2.77;;;29.10;42.70;;;;;;5017865;28;20850;-44
2022/08/04 00:37:44;;;;;;;3.37;2.67;;;29.10;42.50;;;;;;5023168;28;20276;-45
2022/08/04 00:40:34;;;;;;;3.17;2.97;;;29.20;42.50;;;;;;5026381;28;20513;-44
2022/08/04 00:43:31;;;;;;;3.47;2.53;;;29.10;42.60;;;;;;5022905;28;20443;-45
2022/08/04 00:45:56;;;;;;;2.50;2.40;;;28.80;43.10;;;;;;5024244;28;20543;-45
2022/08/04 00:48:43;;;;;;;2.80;2.60;;;28.80;43.40;;;;;;5020003;28;20587;-45
2022/08/04 00:51:42;;;;;;;3.00;2.70;;;28.80;43.30;;;;;;5019794;28;20201;-45
2022/08/04 00:54:40;;;;;;;3.00;2.70;;;28.70;43.40;;;;;;4980462;28;20493;-45
2022/08/04 00:57:15;;;;;;;3.20;2.20;;;28.70;43.50;;;;;;4985564;28;20445;-47
2022/08/04 01:00:05;;;;;;;2.40;2.30;;;28.40;43.60;;;;;;4983662;28;20445;-45
2022/08/04 01:02:36;;;;;;;2.70;2.50;;;28.20;44.10;;;;;;4984609;28;20458;-44
2022/08/04 01:05:24;;;;;;;4.40;2.60;;;28.20;44.30;;;;;;4985672;28;20465;-45
2022/08/04 01:08:21;;;;;;;4.10;3.20;;;28.10;44.20;;;;;;4984659;28;20486;-48
2022/08/04 01:11:14;;;;;;;2.50;2.40;;;27.80;45.00;;;;;;4978930;28;20454;-48
2022/08/04 01:14:06;;;;;;;3.63;2.63;;;28.00;45.00;;;;;;4985934;28;20930;-44
2022/08/04 01:16:34;;;;;;;2.90;2.70;;;28.20;44.30;;;;;;4988011;28;20519;-44
2022/08/04 01:19:03;;;;;;;3.17;2.97;;;28.20;44.30;;;;;;4984258;28;20462;-48
2022/08/04 01:21:29;;;;;;;3.00;2.80;;;28.10;44.60;;;;;;4987351;28;20497;-48
2022/08/04 01:24:12;;;;;;;3.20;2.97;;;28.20;44.60;;;;;;4983880;28;20450;-49
2022/08/04 01:27:04;;;;;;;4.50;2.70;;;28.10;44.50;;;;;;4985218;28;20288;-44
2022/08/04 01:29:34;;;;;;;4.70;2.60;;;27.90;44.60;;;;;;4986132;28;20524;-47
2022/08/04 01:32:06;;;;;;;2.70;2.00;;;28.00;44.40;;;;;;4981762;28;20547;-46
2022/08/04 01:34:48;;;;;;;3.03;2.83;;;27.80;44.80;;;;;;4985157;28;20437;-45
2022/08/04 01:37:23;;;;;;;3.23;2.57;;;27.80;44.80;;;;;;4982229;28;20454;-44
2022/08/04 01:40:03;;;;;;;4.30;2.67;;;27.90;44.60;;;;;;4977356;28;20451;-48
2022/08/04 01:42:32;;;;;;;2.73;2.53;;;27.90;44.50;;;;;;4983796;28;20532;-44
2022/08/04 01:45:01;;;;;;;3.13;2.90;;;27.80;44.80;;;;;;4988262;28;20525;-45
2022/08/04 01:47:29;;;;;;;2.63;2.43;;;27.80;44.50;;;;;;4987329;28;20981;-49
2022/08/04 01:50:03;;;;;;;3.20;2.40;;;27.70;45.00;;;;;;4984655;28;20952;-45
2022/08/04 01:52:31;;;;;;;3.00;2.80;;;27.90;44.60;;;;;;4998338;28;20475;-44
2022/08/04 01:54:58;;;;;;;2.90;2.57;;;27.80;44.30;;;;;;5021931;28;20924;-45
2022/08/04 01:57:25;;;;;;;2.40;2.30;;;27.70;44.80;;;;;;5014421;28;20491;-44
2022/08/04 01:59:51;;;;;;;3.10;2.50;;;27.70;44.50;;;;;;5022155;28;20435;-44
2022/08/04 02:02:21;;;;;;;3.60;2.73;;;27.80;44.50;;;;;;5020863;28;20463;-45
2022/08/04 02:04:46;;;;;;;3.00;2.80;;;27.80;44.50;;;;;;5022633;28;20443;-46
2022/08/04 02:07:46;;;;;;;3.97;2.53;;;27.90;44.50;;;;;;5019060;28;20462;-45
2022/08/04 02:10:34;;;;;;;2.97;2.70;;;27.80;44.50;;;;;;5011596;28;20204;-48
2022/08/04 02:13:22;;;;;;;5.07;2.67;;;27.80;44.60;;;;;;5023154;28;20455;-48
2022/08/04 02:16:21;;;;;;;3.03;2.70;;;27.90;44.60;;;;;;5020940;28;20869;-48
2022/08/04 02:19:11;;;;;;;2.80;2.33;;;27.90;44.20;;;;;;5020215;28;20872;-47
2022/08/04 02:21:39;;;;;;;4.00;2.67;;;28.00;44.20;;;;;;5022321;28;20440;-49
2022/08/04 02:24:07;;;;;;;3.10;2.90;;;28.00;44.20;;;;;;5021243;28;20440;-47
2022/08/04 02:26:35;;;;;;;2.57;2.40;;;28.00;44.40;;;;;;5023675;28;20448;-47
2022/08/04 02:29:12;;;;;;;2.93;2.63;;;28.10;44.40;;;;;;5016222;28;20541;-45
2022/08/04 02:32:00;;;;;;;3.03;2.83;;;28.10;44.30;;;;;;5023015;28;20474;-44
2022/08/04 02:34:40;;;;;;;2.80;2.60;;;28.10;44.20;;;;;;5020712;28;20444;-44
2022/08/04 02:37:09;;;;;;;4.00;2.33;;;28.10;44.00;;;;;;5022197;28;20502;-46
2022/08/04 02:39:36;;;;;;;2.87;2.63;;;28.20;43.90;;;;;;5021953;28;20507;-44
2022/08/04 02:42:03;;;;;;;2.87;2.57;;;28.10;43.80;;;;;;5019432;28;20453;-45
2022/08/04 02:44:31;;;;;;;2.87;2.67;;;28.20;43.80;;;;;;5025747;28;20470;-44
2022/08/04 02:46:59;;;;;;;3.00;2.80;;;28.30;44.00;;;;;;5022301;28;20575;-44
2022/08/04 02:49:27;;;;;;;2.97;2.77;;;28.30;43.80;;;;;;5022377;28;20487;-47
2022/08/04 02:51:55;;;;;;;2.93;2.70;;;28.20;43.80;;;;;;5023530;28;20452;-44
2022/08/04 02:54:33;;;;;;;2.90;2.70;;;28.20;44.00;;;;;;5023868;28;20907;-45
2022/08/04 02:57:01;;;;;;;3.90;3.13;;;28.10;44.20;;;;;;5017354;28;20998;-45
2022/08/04 02:59:31;;;;;;;2.77;2.57;;;28.10;44.30;;;;;;5023659;28;20443;-44
2022/08/04 03:01:56;;;;;;;2.80;2.47;;;28.10;44.20;;;;;;5023597;28;20505;-44
2022/08/04 03:04:35;;;;;;;2.50;2.40;;;28.10;44.20;;;;;;5027257;28;20451;-45
2022/08/04 03:07:34;;;;;;;3.77;2.67;;;28.00;44.20;;;;;;5022493;28;20193;-45
2022/08/04 03:10:18;;;;;;;2.87;2.63;;;27.90;44.30;;;;;;5028031;28;20455;-44
2022/08/04 03:13:08;;;;;;;3.53;2.43;;;27.90;44.50;;;;;;5028659;28;20539;-44
2022/08/04 03:15:58;;;;;;;2.50;2.30;;;27.90;44.70;;;;;;5025695;28;20462;-45
2022/08/04 03:18:38;;;;;;;2.33;2.23;;;27.90;44.80;;;;;;5018386;28;20475;-46
2022/08/04 03:21:45;;;;;;;2.20;2.10;;;27.90;44.90;;;;;;5020028;28;20447;-45
2022/08/04 03:24:32;;;;;;;3.27;2.37;;;27.90;44.80;;;;;;5015883;28;20844;-47
2022/08/04 03:27:36;;;;;;;2.30;2.20;;;28.00;44.80;;;;;;5024482;28;20971;-47
2022/08/04 03:30:14;;;;;;;2.87;2.67;;;28.00;44.70;;;;;;5024107;28;20460;-45
2022/08/04 03:33:04;;;;;;;4.13;2.70;;;28.00;44.60;;;;;;5019156;28;20467;-44
2022/08/04 03:36:04;;;;;;;2.80;2.60;;;27.90;44.70;;;;;;5024129;28;20494;-44
2022/08/04 03:38:29;;;;;;;2.97;2.70;;;27.80;45.00;;;;;;5026753;28;20529;-44
2022/08/04 03:41:17;;;;;;;2.93;2.60;;;27.80;45.00;;;;;;5025333;28;20537;-44
2022/08/04 03:44:20;;;;;;;2.80;2.60;;;27.90;45.00;;;;;;5027474;28;20200;-44
2022/08/04 03:46:45;;;;;;;2.67;2.47;;;27.80;45.00;;;;;;5022131;28;21008;-44
2022/08/04 03:49:26;;;;;;;3.33;2.90;;;27.90;45.00;;;;;;5027011;28;20509;-49
2022/08/04 03:54:55;;;;;;;2.90;2.70;;;28.00;44.70;;;;;;5017444;28;20611;-45
2022/08/04 03:57:27;;;;;;;3.30;2.43;;;28.00;44.70;;;;;;5027505;28;20457;-46
2022/08/04 04:00:04;;;;;;;3.70;3.40;;;28.00;44.50;;;;;;5024400;28;20455;-47
2022/08/04 04:02:42;;;;;;;2.80;2.60;;;28.00;44.40;;;;;;5026249;28;20443;-46
2022/08/04 04:05:45;;;;;;;3.47;3.00;;;28.00;44.60;;;;;;5026817;28;20455;-45
2022/08/04 04:08:49;;;;;;;2.87;2.57;;;28.00;44.60;;;;;;5029730;28;20561;-45
2022/08/04 04:11:42;;;;;;;2.80;2.60;;;28.10;44.60;;;;;;4941619;28;20458;-46
2022/08/04 04:14:17;;;;;;;3.87;2.70;;;28.10;44.40;;;;;;5021433;28;21233;-47
2022/08/04 04:17:11;;;;;;;3.30;3.10;;;28.10;44.30;;;;;;5029995;28;20455;-45
2022/08/04 04:20:00;;;;;;;3.03;2.83;;;28.10;44.40;;;;;;4983124;28;20533;-45
2022/08/04 04:22:44;;;;;;;2.40;2.20;;;28.10;44.30;;;;;;5023962;28;20456;-45
2022/08/04 04:25:34;;;;;;;2.50;2.27;;;28.10;44.30;;;;;;5024266;28;20451;-45
2022/08/04 04:28:18;;;;;;;2.57;2.37;;;28.10;44.40;;;;;;5023518;28;20487;-45
2022/08/04 04:30:57;;;;;;;3.30;3.00;;;28.10;44.40;;;;;;5024512;28;20993;-45
2022/08/04 04:33:50;;;;;;;3.07;2.87;;;28.10;43.90;;;;;;5025340;28;20448;-45
2022/08/04 04:36:31;;;;;;;3.10;2.80;;;28.10;43.80;;;;;;5019221;28;20453;-47
2022/08/04 04:39:05;;;;;;;3.13;2.90;;;28.00;44.00;;;;;;5020190;28;20451;-45
2022/08/04 04:41:54;;;;;;;3.37;3.17;;;27.90;44.20;;;;;;5021590;28;20565;-50
2022/08/04 04:44:38;;;;;;;3.57;3.27;;;27.70;44.30;;;;;;5026130;28;20480;-45
2022/08/04 04:47:28;;;;;;;3.80;3.00;;;27.10;45.90;;;;;;5027145;28;20535;-46
2022/08/04 04:50:08;;;;;;;4.97;2.70;;;26.80;46.60;;;;;;5019124;28;20489;-45
2022/08/04 04:52:52;;;;;;;3.80;2.73;;;26.80;46.70;;;;;;5027866;28;20487;-45
2022/08/04 04:55:25;;;;;;;2.90;2.60;;;26.90;46.30;;;;;;5018150;28;20509;-47
2022/08/04 04:57:55;;;;;;;3.03;2.83;;;27.10;46.10;;;;;;5026604;28;20443;-45
2022/08/04 05:00:33;;;;;;;2.90;2.40;;;27.10;45.90;;;;;;5024854;28;20447;-45
2022/08/04 05:03:17;;;;;;;2.90;2.70;;;27.20;45.60;;;;;;5029363;28;20443;-45
2022/08/04 05:06:07;;;;;;;2.63;2.40;;;27.20;45.60;;;;;;5025571;28;20460;-45
2022/08/04 05:08:49;;;;;;;3.00;2.80;;;27.10;45.70;;;;;;5025845;28;20491;-46
2022/08/04 05:11:26;;;;;;;4.63;2.80;;;27.20;45.70;;;;;;5019656;28;20445;-46
2022/08/04 05:14:04;;;;;;;3.80;2.87;;;27.20;45.80;;;;;;5023629;28;20478;-48
2022/08/04 05:16:48;;;;;;;2.87;2.67;;;27.10;46.00;;;;;;5019839;28;20442;-47
2022/08/04 05:19:20;;;;;;;4.70;3.20;;;27.00;46.20;;;;;;5019810;28;20514;-45
2022/08/04 05:21:55;;;;;;;3.87;2.77;;;27.00;46.10;;;;;;5020829;28;20832;-48
2022/08/04 05:24:24;;;;;;;3.50;3.30;;;26.90;46.40;;;;;;5024437;28;20534;-45
2022/08/04 05:26:54;;;;;;;3.43;2.90;;;26.90;46.40;;;;;;5025388;28;20521;-46
2022/08/04 05:29:47;;;;;;;3.20;2.87;;;26.70;47.00;;;;;;5020671;28;20575;-45
2022/08/04 05:32:15;;;;;;;3.20;2.80;;;26.60;47.30;;;;;;5024890;28;20962;-47
2022/08/04 05:34:47;;;;;;;3.63;3.33;;;26.40;47.90;;;;;;5023452;28;20444;-45
2022/08/04 05:37:19;;;;;;;3.73;3.10;;;26.00;48.90;;;;;;5027463;28;20856;-45
2022/08/04 05:39:52;;;;;;;3.10;2.87;;;25.80;49.30;;;;;;5019348;28;20539;-46
2022/08/04 05:42:19;;;;;;;3.33;3.03;;;25.70;49.90;;;;;;5022749;28;20463;-45
2022/08/04 05:44:45;;;;;;;4.23;3.13;;;25.50;50.10;;;;;;5025369;28;20435;-47
2022/08/04 05:47:13;;;;;;;9.13;3.60;;;25.30;50.80;;;;;;5030736;28;20451;-45
2022/08/04 05:49:40;;;;;;;3.90;3.10;;;25.20;51.00;;;;;;5020613;28;20974;-45
2022/08/04 05:52:06;;;;;;;3.00;2.80;;;25.20;51.30;;;;;;5028620;28;20475;-45
2022/08/04 05:54:34;;;;;;;3.10;2.77;;;25.00;51.50;;;;;;5021479;28;20505;-45
2022/08/04 05:57:05;;;;;;;4.37;3.30;;;25.10;51.60;;;;;;5025410;28;20490;-45
2022/08/04 05:59:32;;;;;;;4.97;3.93;;;25.20;51.30;;;;;;5026236;28;20452;-45
2022/08/04 06:01:59;;;;;;;3.40;2.90;;;25.30;51.40;;;;;;5027607;28;20444;-47
2022/08/04 06:04:37;;;;;;;3.43;3.13;;;25.50;50.80;;;;;;5027451;28;20443;-45
2022/08/04 06:07:03;;;;;;;3.83;2.70;;;25.50;50.70;;;;;;5029677;28;20440;-47
2022/08/04 06:09:30;;;;;;;6.10;3.07;;;25.40;50.80;;;;;;5023051;28;20492;-48
2022/08/04 06:12:01;;;;;;;5.00;2.83;;;25.40;50.80;;;;;;5019128;28;20506;-46
2022/08/04 06:14:32;;;;;;;3.30;3.00;;;25.30;50.90;;;;;;5020561;28;20442;-45
2022/08/04 06:17:00;;;;;;;4.17;2.77;;;25.50;50.60;;;;;;5029048;28;20447;-45
2022/08/04 06:19:28;;;;;;;3.53;3.23;;;25.70;50.30;;;;;;5022234;28;20479;-47
2022/08/04 06:21:57;;;;;;;3.77;3.37;;;26.00;49.70;;;;;;5028603;28;20450;-46
2022/08/04 06:24:25;;;;;;;7.00;2.90;;;26.10;49.30;;;;;;5028641;28;21296;-46
2022/08/04 06:26:52;;;;;;;5.13;2.80;;;26.40;49.10;;;;;;5026741;28;20447;-46
2022/08/04 06:29:33;;;;;;;3.20;3.00;;;26.70;48.40;;;;;;5028507;28;20513;-47
2022/08/04 06:32:01;;;;;;;3.33;3.07;;;26.80;48.20;;;;;;5029768;28;20586;-46
2022/08/04 06:34:29;;;;;;;6.73;3.50;;;27.00;48.00;;;;;;5020913;28;22074;-46
2022/08/04 06:36:57;;;;;;;3.00;2.60;;;27.30;47.70;;;;;;5029916;28;20512;-46
2022/08/04 06:39:24;;;;;;;2.93;2.70;;;27.40;47.20;;;;;;5029512;28;21009;-47
2022/08/04 06:41:52;;;;;;;3.73;2.47;;;27.60;47.00;;;;;;5026155;28;20483;-46
2022/08/04 06:44:19;;;;;;;4.23;2.80;;;27.80;46.30;;;;;;5026288;28;20506;-46
2022/08/04 06:46:45;;;;;;;5.33;3.00;;;27.80;46.40;;;;;;5029099;28;20456;-46
2022/08/04 06:49:13;;;;;;;2.83;2.63;;;27.90;46.10;;;;;;5028131;28;20519;-45
2022/08/04 06:51:40;;;;;;;3.20;2.60;;;28.20;45.50;;;;;;5026041;28;20478;-46
2022/08/04 06:54:06;;;;;;;2.43;2.33;;;28.40;44.80;;;;;;5029385;28;21250;-46
2022/08/04 06:56:34;;;;;;;4.23;2.40;;;28.70;44.50;;;;;;5028498;28;20458;-46
2022/08/04 06:59:01;;;;;;;3.13;2.60;;;28.90;43.50;;;;;;5029256;28;20806;-48
2022/08/04 07:01:29;;;;;;;2.50;2.30;;;29.00;43.20;;;;;;5027214;28;20442;-46
2022/08/04 07:03:55;;;;;;;3.00;2.80;;;29.20;43.00;;;;;;5029097;28;20452;-47
2022/08/04 07:06:21;;;;;;;2.50;2.30;;;29.30;42.40;;;;;;5028928;28;20869;-44
2022/08/04 07:08:49;;;;;;;2.40;2.20;;;29.30;42.40;;;;;;5028139;28;20538;-46
2022/08/04 07:11:15;;;;;;;3.53;2.40;;;29.50;42.20;;;;;;5025580;28;20451;-44
2022/08/04 07:13:43;;;;;;;3.07;2.60;;;29.60;41.70;;;;;;5027595;28;20889;-43
2022/08/04 07:16:15;;;;;;;3.00;2.60;;;29.90;41.40;;;;;;5019742;28;20515;-43
2022/08/04 07:18:41;;;;;;;4.30;2.20;;;30.00;40.50;;;;;;5008377;28;20947;-45
2022/08/04 07:21:07;;;;;;;2.07;1.97;;;30.00;40.40;;;;;;5015515;28;20425;-43
2022/08/04 07:23:33;;;;;;;4.73;2.57;;;30.30;40.30;;;;;;5013490;28;20209;-46
2022/08/04 07:25:59;;;;;;;2.30;2.10;;;30.40;40.00;;;;;;5028239;28;20444;-45
2022/08/04 07:28:27;;;;;;;3.27;2.30;;;30.40;39.90;;;;;;5021003;28;20221;-43
2022/08/04 07:30:54;;;;;;;6.97;2.63;;;30.40;39.50;;;;;;5018121;28;20292;-44
2022/08/04 07:33:20;;;;;;;2.73;2.60;;;30.40;39.60;;;;;;5025951;28;20806;-44
2022/08/04 07:35:50;;;;;;;2.30;2.10;;;30.60;39.00;;;;;;5029628;28;20562;-44
2022/08/04 07:38:16;;;;;;;2.77;2.57;;;30.80;39.00;;;;;;5028525;28;20452;-45
2022/08/04 07:40:42;;;;;;;2.60;2.37;;;31.10;38.60;;;;;;5029906;28;20424;-45
2022/08/04 07:43:08;;;;;;;2.43;2.23;;;31.40;38.30;;;;;;5025901;28;20493;-45
2022/08/04 07:45:34;;;;;;;3.50;2.40;;;31.60;38.10;;;;;;5019548;28;20205;-44
2022/08/04 07:48:02;;;;;;;2.30;2.10;;;31.70;37.60;;;;;;5030408;28;20229;-47
2022/08/04 07:50:28;;;;;;;4.63;2.40;;;31.90;37.40;;;;;;5030360;28;20444;-45
2022/08/04 07:52:54;;;;;;;4.53;2.30;;;31.90;37.30;;;;;;5028097;28;21697;-48
2022/08/04 07:55:21;;;;;;;2.33;2.23;;;32.00;37.20;;;;;;5030311;28;20300;-45
2022/08/04 07:57:47;;;;;;;4.33;2.23;;;32.00;37.20;;;;;;5027796;28;20456;-46
2022/08/04 08:00:13;;;;;;;4.60;2.30;;;32.00;37.50;;;;;;5027702;28;20432;-46
2022/08/04 08:02:41;;;;;;;2.43;2.27;;;32.30;36.80;;;;;;5029993;28;20204;-46
2022/08/04 08:05:09;;;;;;;3.40;2.40;;;32.50;36.60;;;;;;5028105;28;20846;-49
2022/08/04 08:07:35;;;;;;;2.73;2.53;;;32.70;36.40;;;;;;5027142;28;20790;-49
2022/08/04 08:10:01;;;;;;;2.97;2.77;;;32.90;36.20;;;;;;5027416;28;20440;-49
2022/08/04 08:12:28;;;;;;;2.50;2.30;;;32.90;35.60;;;;;;5027865;28;20625;-49
2022/08/04 08:14:54;;;;;;;3.10;2.80;;;33.10;35.40;;;;;;5030391;28;20594;-46
2022/08/04 08:17:19;;;;;;;3.40;2.80;;;33.10;35.30;;;;;;5025354;28;20451;-46
2022/08/04 08:19:45;;;;;;;3.20;2.90;;;33.40;34.90;;;;;;5024178;28;20443;-46
2022/08/04 08:22:11;;;;;;;2.40;2.27;;;33.60;34.60;;;;;;5018740;28;20255;-45
2022/08/04 08:24:37;;;;;;;2.73;2.53;;;33.90;34.60;;;;;;5028250;28;20236;-45
2022/08/04 08:27:03;;;;;;;4.57;2.40;;;33.80;34.10;;;;;;5027144;28;20530;-48
2022/08/04 08:29:31;;;;;;;4.50;2.53;;;33.60;34.20;;;;;;5029251;28;20275;-45
2022/08/04 08:31:59;;;;;;;2.57;2.33;;;33.60;34.40;;;;;;5028197;28;20530;-46
2022/08/04 08:34:27;;;;;;;2.40;2.20;;;33.70;34.40;;;;;;5026265;28;20455;-45
2022/08/04 08:37:15;;;;;;;2.73;2.50;;;34.00;33.80;;;;;;5024770;28;20454;-44
2022/08/04 08:39:50;;;;;;;4.13;2.50;;;34.30;32.80;;;;;;5029914;28;20454;-47
2022/08/04 08:42:18;;;;;;;3.10;2.57;;;34.50;32.90;;;;;;5023604;28;20452;-50
2022/08/04 08:45:21;;;;;;;3.20;2.80;;;34.70;32.90;;;;;;5025289;28;21048;-45
2022/08/04 08:48:11;;;;;;;2.30;2.10;;;34.80;32.50;;;;;;5027377;28;20958;-46
2022/08/04 08:50:52;;;;;;;2.53;2.37;;;34.90;32.00;;;;;;5022162;28;20443;-49
2022/08/04 08:53:42;;;;;;;5.70;2.70;;;35.00;31.90;;;;;;5025786;28;20973;-48
2022/08/04 08:56:24;;;;;;;16.23;2.73;;;35.30;32.00;;;;;;5023943;28;20448;-50
2022/08/04 08:59:18;;;;;;;2.57;2.37;;;35.40;31.90;;;;;;5028467;28;20916;-47
2022/08/04 09:02:02;;;;;;;2.20;2.10;;;35.40;30.90;;;;;;5030807;28;20448;-46
2022/08/04 09:05:15;;;;;;;2.23;2.13;;;35.70;30.60;;;;;;5024466;28;21163;-50
2022/08/04 09:07:59;;;;;;;2.70;2.50;;;35.90;30.10;;;;;;4995121;28;20451;-45
2022/08/04 09:10:47;;;;;;;2.30;2.20;;;36.10;30.10;;;;;;5028236;28;20447;-48
2022/08/04 09:13:30;;;;;;;2.80;2.60;;;36.20;29.90;;;;;;5030346;28;20542;-48
2022/08/04 09:16:06;;;;;;;2.27;2.17;;;36.20;29.60;;;;;;5024373;28;20439;-46
2022/08/04 09:19:06;;;;;;;2.53;2.33;;;36.20;29.50;;;;;;5023757;28;20532;-48
2022/08/04 09:22:03;;;;;;;2.30;2.20;;;36.30;29.10;;;;;;4994620;28;20459;-49
2022/08/04 09:24:52;;;;;;;3.30;2.50;;;36.50;29.20;;;;;;5020490;28;20454;-47
2022/08/04 09:27:18;;;;;;;2.23;2.13;;;36.60;28.70;;;;;;5029071;28;20455;-46
2022/08/04 09:30:07;;;;;;;2.63;2.43;;;36.80;27.90;;;;;;5027990;28;20479;-44
2022/08/04 09:32:54;;;;;;;2.30;2.10;;;36.70;28.00;;;;;;5024586;28;20211;-44
2022/08/04 09:35:25;;;;;;;2.60;2.40;;;36.90;27.90;;;;;;5015315;28;20428;-48
2022/08/04 09:38:12;;;;;;;2.37;2.23;;;37.30;27.60;;;;;;5026769;28;20811;-48
2022/08/04 09:41:05;;;;;;;2.30;2.13;;;37.60;27.30;;;;;;5018065;28;20443;-49
2022/08/04 09:44:15;;;;;;;5.57;2.67;;;37.80;27.10;;;;;;5026177;28;20487;-46
2022/08/04 09:47:02;;;;;;;3.00;2.80;;;37.90;26.90;;;;;;5029491;28;20443;-49
2022/08/04 09:49:38;;;;;;;3.03;2.50;;;38.00;26.50;;;;;;5022768;28;20898;-45
2022/08/04 09:52:27;;;;;;;2.83;2.23;;;37.90;26.50;;;;;;5025585;28;20506;-46
2022/08/04 09:55:08;;;;;;;2.43;2.20;;;38.00;26.70;;;;;;5028158;28;20443;-46
2022/08/04 09:57:56;;;;;;;3.77;2.90;;;38.20;26.40;;;;;;5028641;28;20442;-45
2022/08/04 10:00:28;;;;;;;3.00;2.80;;;38.30;26.10;;;;;;5022940;28;20446;-46
2022/08/04 10:02:59;;;;;;;3.30;2.50;;;38.30;26.40;;;;;;5026981;28;20438;-45
2022/08/04 10:05:46;;;;;;;3.03;2.73;;;38.50;26.20;;;;;;5026429;28;20443;-49
2022/08/04 10:08:17;;;;;;;2.73;2.63;;;38.60;26.10;;;;;;4996775;28;20561;-49
2022/08/04 10:10:48;;;;;;;3.43;2.40;;;38.80;25.70;;;;;;5024269;28;20443;-47
2022/08/04 10:13:37;;;;;;;5.17;2.97;;;38.80;25.80;;;;;;5022134;28;20484;-46
2022/08/04 10:16:39;;;;;;;5.43;2.83;;;39.00;25.90;;;;;;5028627;28;20451;-45
2022/08/04 10:19:25;;;;;;;2.90;2.70;;;39.20;25.30;;;;;;5027174;28;20492;-45
2022/08/04 10:22:09;;;;;;;3.63;3.20;;;39.30;24.90;;;;;;5025728;28;20459;-49
2022/08/04 10:24:54;;;;;;;2.40;2.30;;;39.20;25.40;;;;;;5027855;28;20454;-44
2022/08/04 10:27:38;;;;;;;2.80;2.70;;;39.10;25.30;;;;;;5023330;28;20479;-45
2022/08/04 10:30:10;;;;;;;3.00;2.67;;;39.30;25.30;;;;;;5025983;28;20458;-48
2022/08/04 10:33:02;;;;;;;2.57;2.33;;;39.70;24.90;;;;;;5026085;28;20817;-45
2022/08/04 10:35:36;;;;;;;2.93;2.80;;;39.60;24.20;;;;;;4997764;28;20463;-45
2022/08/04 10:38:13;;;;;;;2.80;2.60;;;39.50;24.60;;;;;;5025421;28;20581;-48
2022/08/04 10:40:44;;;;;;;2.57;2.43;;;39.70;24.80;;;;;;5029026;28;20459;-45
2022/08/04 10:43:37;;;;;;;2.77;2.57;;;39.90;24.30;;;;;;5028376;28;20451;-46
2022/08/04 10:46:12;;;;;;;3.37;3.07;;;40.20;24.10;;;;;;5029040;28;20447;-46
2022/08/04 10:49:01;;;;;;;3.90;3.00;;;40.30;23.90;;;;;;5027466;28;20585;-48
2022/08/04 10:51:41;;;;;;;2.63;2.43;;;40.50;23.80;;;;;;5022311;28;20539;-48
2022/08/04 10:54:10;;;;;;;2.77;2.57;;;40.20;23.60;;;;;;5028246;28;20479;-45
2022/08/04 10:57:03;;;;;;;2.33;2.23;;;40.40;23.70;;;;;;5026936;28;21005;-47
2022/08/04 10:59:38;;;;;;;2.90;2.47;;;40.70;23.10;;;;;;5024958;28;20530;-47
2022/08/04 11:02:32;;;;;;;6.30;2.80;;;41.00;22.90;;;;;;5024462;28;20488;-49
2022/08/04 11:05:27;;;;;;;3.77;3.10;;;41.30;22.70;;;;;;5024006;28;20482;-49
2022/08/04 11:08:00;;;;;;;2.77;2.67;;;41.20;22.70;;;;;;5023982;28;20459;-49
2022/08/04 11:10:29;;;;;;;3.23;2.93;;;41.30;22.60;;;;;;5017770;28;20436;-47
2022/08/04 11:13:02;;;;;;;2.73;2.53;;;41.20;22.50;;;;;;5024183;28;20450;-46
2022/08/04 11:15:43;;;;;;;3.47;2.53;;;41.50;22.50;;;;;;5020000;28;20508;-46
2022/08/04 11:18:17;;;;;;;2.93;2.63;;;41.80;22.40;;;;;;5028052;28;20545;-47
2022/08/04 11:20:51;;;;;;;2.70;2.50;;;41.90;22.30;;;;;;5030656;28;20871;-47
2022/08/04 11:23:20;;;;;;;3.00;2.80;;;41.80;21.60;;;;;;5030028;28;20455;-46
2022/08/04 11:26:05;;;;;;;2.70;2.60;;;41.70;21.80;;;;;;5033156;28;20224;-47
2022/08/04 11:28:57;;;;;;;2.67;2.47;;;41.80;21.60;;;;;;5029803;28;20223;-48
2022/08/04 11:31:29;;;;;;;2.73;2.63;;;41.80;21.80;;;;;;5030785;28;20359;-47
2022/08/04 11:34:19;;;;;;;2.83;2.70;;;41.80;21.50;;;;;;5033024;28;20447;-45
2022/08/04 11:37:01;;;;;;;2.80;2.60;;;42.00;21.80;;;;;;5029542;28;20197;-47
2022/08/04 11:39:32;;;;;;;3.50;2.43;;;42.30;21.50;;;;;;5032363;28;20188;-47
2022/08/04 11:42:05;;;;;;;3.23;3.03;;;42.50;21.10;;;;;;5027911;28;20446;-48
2022/08/04 11:44:36;;;;;;;4.10;2.70;;;42.70;21.10;;;;;;5024098;28;20326;-46
2022/08/04 11:47:10;;;;;;;3.30;3.00;;;42.80;20.80;;;;;;5020302;28;20189;-48
2022/08/04 11:49:43;;;;;;;3.10;2.90;;;42.80;20.80;;;;;;5024241;28;21075;-47
2022/08/04 11:52:11;;;;;;;2.67;2.33;;;42.90;20.80;;;;;;5028852;28;20282;-48
2022/08/04 11:54:38;;;;;;;3.07;2.87;;;43.10;20.80;;;;;;5030102;28;21485;-49
2022/08/04 11:57:05;;;;;;;2.70;2.60;;;43.10;20.70;;;;;;5030309;28;20200;-46
2022/08/04 11:59:34;;;;;;;3.55;2.53;;;43.20;20.80;;;;;;5023041;28;20189;-48
2022/08/04 12:02:05;;;;;;;2.78;2.67;;;43.40;20.60;;;;;;5020790;28;20192;-49
2022/08/04 12:04:55;;;;;;;2.83;2.45;;;43.60;20.70;;;;;;5018348;28;20228;-48
2022/08/04 12:07:44;;;;;;;3.05;2.80;;;43.70;20.20;;;;;;5013579;28;20653;-46
2022/08/04 12:10:19;;;;;;;3.00;2.80;;;43.70;19.70;;;;;;5012759;28;20216;-47
2022/08/04 12:12:45;;;;;;;3.38;3.03;;;43.60;19.80;;;;;;5018063;28;20200;-48
2022/08/04 12:15:35;;;;;;;2.90;2.70;;;43.70;19.40;;;;;;5020499;28;20223;-50
2022/08/04 12:18:09;;;;;;;4.20;2.92;;;43.20;19.70;;;;;;5022255;28;20206;-47
2022/08/04 12:20:50;;;;;;;2.78;2.60;;;43.50;19.60;;;;;;5032861;28;20196;-46
2022/08/04 12:23:37;;;;;;;2.95;2.70;;;43.90;19.80;;;;;;5031320;28;20200;-47
2022/08/04 12:26:06;;;;;;;2.90;2.70;;;43.80;19.50;;;;;;5023405;28;20268;-46
2022/08/04 12:28:42;;;;;;;2.78;2.67;;;43.80;19.60;;;;;;5012566;28;20265;-46
2022/08/04 12:31:26;;;;;;;2.72;2.63;;;43.80;19.60;;;;;;5012278;28;20614;-48
2022/08/04 12:34:11;;;;;;;3.08;2.83;;;44.10;19.50;;;;;;5015798;28;20568;-49
2022/08/04 12:37:03;;;;;;;3.17;2.97;;;44.30;19.50;;;;;;5025599;28;20200;-50
2022/08/04 12:39:30;;;;;;;3.85;3.55;;;44.50;19.20;;;;;;5032019;28;20204;-46
2022/08/04 12:42:21;;;;;;;3.20;2.78;;;44.50;19.40;;;;;;5032989;28;20251;-50
2022/08/04 12:44:52;;;;;;;3.13;2.92;;;44.50;19.40;;;;;;5032031;28;20211;-48
2022/08/04 12:47:23;;;;;;;3.45;3.15;;;44.60;19.40;;;;;;5030678;28;20636;-50
2022/08/04 12:49:51;;;;;;;3.90;3.33;;;44.00;19.40;;;;;;5019319;28;20256;-46
2022/08/04 12:52:19;;;;;;;3.22;3.03;;;43.20;20.00;;;;;;5032088;28;20236;-46
2022/08/04 12:54:50;;;;;;;4.15;3.25;;;43.20;20.20;;;;;;5026551;28;20202;-46
2022/08/04 12:57:17;;;;;;;2.95;2.75;;;43.50;20.20;;;;;;5012534;28;20286;-46
2022/08/04 12:59:44;;;;;;;3.40;3.20;;;43.70;20.20;;;;;;5021967;28;20270;-47
2022/08/04 13:02:29;;;;;;;2.97;2.78;;;43.70;20.00;;;;;;5027896;28;20236;-47
2022/08/04 13:04:59;;;;;;;4.15;3.33;;;43.50;20.20;;;;;;5025392;28;20200;-49
2022/08/04 13:07:27;;;;;;;3.50;3.20;;;43.70;20.20;;;;;;5027124;28;20275;-47
2022/08/04 13:09:52;;;;;;;3.53;3.25;;;43.70;19.70;;;;;;5029267;28;20228;-47
2022/08/04 13:12:23;;;;;;;3.10;3.00;;;43.40;20.00;;;;;;5028079;28;20274;-47
2022/08/04 13:14:57;;;;;;;3.22;3.10;;;43.60;20.00;;;;;;5028926;28;20223;-48
2022/08/04 13:17:23;;;;;;;3.40;3.10;;;43.80;19.90;;;;;;5028713;28;20280;-47
2022/08/04 13:19:50;;;;;;;3.20;3.00;;;44.00;19.90;;;;;;5027531;28;20254;-46
2022/08/04 13:22:36;;;;;;;3.70;2.90;;;44.10;19.70;;;;;;5020726;28;20197;-47
2022/08/04 13:25:02;;;;;;;3.30;3.10;;;44.30;19.90;;;;;;5021343;28;20208;-48
2022/08/04 13:27:28;;;;;;;4.20;2.75;;;44.40;20.00;;;;;;5030269;28;20280;-47
2022/08/04 13:29:56;;;;;;;2.92;2.72;;;44.60;19.40;;;;;;5027776;28;20224;-46
2022/08/04 13:32:24;;;;;;;3.50;3.30;;;44.90;19.50;;;;;;5023343;28;20197;-48
2022/08/04 13:34:53;;;;;;;2.95;2.75;;;45.00;18.90;;;;;;5022686;28;20203;-49
2022/08/04 13:37:25;;;;;;;3.33;3.03;;;45.00;19.30;;;;;;5024223;28;20207;-47